createdAt,value
2023-05-10T05:54:50.883Z,17.95
2023-05-10T05:59:46.106Z,18.61
2023-05-10T06:01:38.408Z,18.60
2023-05-10T06:02:44.538Z,18.19
2023-05-10T06:03:49.034Z,18.42
2023-05-10T06:05:21.494Z,18.39
2023-05-10T06:42:50.879Z,19.28
2023-05-10T06:44:47.810Z,19.52
2023-05-10T06:45:59.415Z,19.52
2023-05-10T06:48:55.031Z,19.92
2023-05-10T06:51:38.450Z,20.62
2023-05-10T06:52:41.621Z,20.68
2023-05-10T06:53:44.794Z,20.90
2023-05-10T06:56:17.270Z,20.85
2023-05-10T06:58:12.636Z,21.22
2023-05-10T06:59:22.849Z,21.53
2023-05-10T07:00:28.445Z,22.08
2023-05-10T07:02:39.816Z,21.76
2023-05-10T07:04:11.787Z,21.68
2023-05-10T07:05:38.047Z,21.27
2023-05-10T07:06:48.675Z,21.49
2023-05-10T07:07:51.171Z,21.70
2023-05-10T07:08:54.736Z,21.34
2023-05-10T07:10:02.750Z,21.86
2023-05-10T07:11:12.066Z,21.75
2023-05-10T07:12:19.661Z,22.01
2023-05-10T07:13:24.364Z,22.51
2023-05-10T07:14:27.168Z,21.49
2023-05-10T07:15:33.585Z,21.62
2023-05-10T07:17:02.833Z,21.05
2023-05-10T07:18:06.972Z,21.63
2023-05-10T07:19:09.315Z,21.48
2023-05-10T07:20:13.062Z,21.81
2023-05-10T07:21:17.311Z,21.43
2023-05-10T07:22:20.463Z,21.95
2023-05-10T07:23:22.614Z,22.01
2023-05-10T07:27:56.292Z,21.80
2023-05-10T07:30:38.177Z,21.50
2023-05-10T07:32:12.468Z,21.52
2023-05-10T07:33:17.488Z,21.68
2023-05-10T07:34:23.266Z,21.88
2023-05-10T07:35:28.797Z,21.75
2023-05-10T07:36:33.782Z,21.75
2023-05-10T07:37:36.113Z,21.99
2023-05-10T07:38:40.921Z,21.58
2023-05-10T07:39:43.086Z,21.29
2023-05-10T07:40:45.370Z,20.98
2023-05-10T07:41:48.586Z,20.47
2023-05-10T07:42:50.537Z,20.64
2023-05-10T07:43:52.546Z,21.24
2023-05-10T07:44:54.904Z,21.17
2023-05-10T07:45:58.841Z,20.76
2023-05-10T07:47:01.198Z,21.33
2023-05-10T07:48:03.791Z,21.85
2023-05-10T07:49:05.872Z,21.91
2023-05-10T07:50:08.734Z,21.86
2023-05-10T07:51:13.221Z,21.67
2023-05-10T07:52:15.174Z,21.67
2023-05-10T07:53:17.269Z,21.70
2023-05-10T07:54:19.322Z,22.13
2023-05-10T07:55:22.447Z,21.75
2023-05-10T07:56:30.653Z,22.20
2023-05-10T07:57:32.672Z,22.20
2023-05-10T07:58:34.759Z,22.49
2023-05-10T07:59:36.781Z,22.71
2023-05-10T08:00:40.595Z,23.25
2023-05-10T08:01:43.669Z,23.16
2023-05-10T08:02:45.845Z,22.82
2023-05-10T08:03:48.140Z,23.10
2023-05-10T08:04:50.125Z,22.54
2023-05-10T08:05:51.979Z,22.60
2023-05-10T08:06:54.038Z,23.12
2023-05-10T08:07:57.075Z,23.20
2023-05-10T08:09:00.037Z,23.19
2023-05-10T08:10:07.349Z,23.61
2023-05-10T08:11:36.633Z,24.11
2023-05-10T08:12:41.626Z,23.43
2023-05-10T08:13:46.376Z,24.55
2023-05-10T08:15:14.187Z,23.07
2023-05-10T08:16:18.361Z,22.90
2023-05-10T08:17:21.254Z,23.84
2023-05-10T08:18:25.219Z,23.95
2023-05-10T08:19:27.402Z,24.50
2023-05-10T08:20:29.498Z,23.61
2023-05-10T08:21:32.527Z,24.20
2023-05-10T08:22:34.658Z,24.12
2023-05-10T08:23:37.009Z,23.54
2023-05-10T08:24:39.812Z,22.83
2023-05-10T08:25:42.206Z,22.17
2023-05-10T08:26:50.833Z,22.26
2023-05-10T08:27:52.879Z,21.85
2023-05-10T08:28:55.706Z,21.83
2023-05-10T08:30:07.167Z,23.09
2023-05-10T08:33:25.442Z,22.91
2023-05-10T08:34:40.676Z,22.80
2023-05-10T08:35:47.724Z,22.14
2023-05-10T08:36:50.972Z,22.70
2023-05-10T08:37:54.519Z,23.12
2023-05-10T08:39:13.521Z,23.30
2023-05-10T08:40:21.846Z,23.97
2023-05-10T08:41:30.237Z,23.16
2023-05-10T08:42:47.788Z,22.90
2023-05-10T08:45:20.147Z,23.84
2023-05-10T08:46:24.460Z,23.79
2023-05-10T08:47:30.838Z,24.18
2023-05-10T08:49:00.230Z,24.85
2023-05-10T08:52:50.602Z,23.31
2023-05-10T08:54:01.559Z,23.93
2023-05-10T09:29:44.466Z,21.29
2023-05-10T09:32:27.093Z,21.00
2023-05-10T09:50:12.376Z,19.32
2023-05-10T09:51:30.573Z,19.87
2023-05-10T09:52:48.798Z,20.13
2023-05-10T09:54:14.381Z,19.29
2023-05-10T09:55:17.543Z,19.11
2023-05-10T09:57:17.277Z,19.48
2023-05-10T09:58:32.212Z,19.68
2023-05-10T09:59:44.171Z,19.75
2023-05-10T10:02:13.586Z,20.03
2023-05-10T10:03:17.869Z,19.88
2023-05-10T10:04:21.562Z,20.10
2023-05-10T10:05:29.885Z,20.01
2023-05-10T10:06:42.551Z,19.65
2023-05-10T10:07:44.642Z,19.75
2023-05-10T10:08:47.272Z,19.97
2023-05-10T10:09:49.516Z,20.28
2023-05-10T10:10:51.711Z,20.41
2023-05-10T10:11:56.525Z,20.12
2023-05-10T10:12:58.790Z,20.11
2023-05-10T10:14:01.293Z,20.60
2023-05-10T10:15:03.400Z,20.47
2023-05-10T10:16:09.651Z,20.40
2023-05-10T10:17:13.148Z,20.23
2023-05-10T10:18:16.563Z,20.35
2023-05-10T10:19:24.921Z,20.09
2023-05-10T10:20:28.039Z,20.17
2023-05-10T10:21:30.468Z,20.32
2023-05-10T10:22:32.659Z,20.06
2023-05-10T10:23:35.569Z,20.03
2023-05-10T10:24:37.817Z,20.28
2023-05-10T10:25:40.385Z,20.44
2023-05-10T10:26:44.491Z,20.72
2023-05-10T10:27:53.272Z,20.79
2023-05-10T10:29:06.258Z,21.19
2023-05-10T10:30:34.434Z,21.41
2023-05-10T10:32:31.254Z,21.34
2023-05-10T10:33:48.671Z,21.16
2023-05-10T10:34:50.981Z,21.41
2023-05-10T10:35:54.575Z,21.16
2023-05-10T10:36:59.360Z,21.07
2023-05-10T10:38:01.657Z,20.66
2023-05-10T10:39:10.650Z,20.60
2023-05-10T10:40:24.977Z,20.20
2023-05-10T10:41:50.593Z,20.22
2023-05-10T10:42:52.933Z,20.40
2023-05-10T10:44:34.968Z,20.51
2023-05-10T10:45:42.081Z,20.38
2023-05-10T10:47:15.454Z,20.69
2023-05-10T10:48:24.489Z,20.71
2023-05-10T10:49:26.313Z,20.65
2023-05-10T10:50:28.491Z,20.71
2023-05-10T10:51:32.371Z,20.83
2023-05-10T10:52:37.667Z,20.77
2023-05-10T10:53:42.435Z,20.84
2023-05-10T10:57:27.743Z,21.03
2023-05-10T10:58:33.284Z,20.33
2023-05-10T10:59:35.484Z,20.49
2023-05-10T11:00:38.864Z,20.58
2023-05-10T11:01:45.626Z,20.37
2023-05-10T11:03:07.724Z,20.30
2023-05-10T11:04:16.708Z,20.16
2023-05-10T11:05:34.092Z,20.00
2023-05-10T11:06:37.452Z,20.02
2023-05-10T11:07:52.990Z,19.83
2023-05-10T11:08:56.190Z,19.79
2023-05-10T11:10:05.715Z,20.09
2023-05-10T11:11:11.466Z,20.35
2023-05-10T11:12:14.175Z,20.33
2023-05-10T11:13:16.582Z,20.30
2023-05-10T11:14:23.626Z,20.35
2023-05-10T11:15:31.531Z,20.53
2023-05-10T11:16:49.461Z,19.85
2023-05-10T11:17:58.922Z,19.66
2023-05-10T11:19:08.006Z,19.54
2023-05-10T11:20:16.464Z,19.08
2023-05-10T11:21:22.398Z,19.07
2023-05-10T11:22:27.231Z,19.16
2023-05-10T11:23:48.841Z,18.85
2023-05-10T11:24:59.790Z,18.66
2023-05-10T11:26:04.214Z,18.70
2023-05-10T11:27:08.105Z,18.88
2023-05-10T11:28:10.966Z,19.10
2023-05-10T11:29:15.000Z,19.19
2023-05-10T11:30:18.971Z,18.83
2023-05-10T11:31:22.304Z,18.95
2023-05-10T11:34:35.956Z,18.99
2023-05-10T11:35:43.008Z,18.79
2023-05-10T11:36:52.921Z,18.63
2023-05-10T11:37:55.205Z,18.80
2023-05-10T11:38:58.110Z,18.69
2023-05-10T11:39:59.972Z,18.85
2023-05-10T11:41:05.678Z,18.99
2023-05-10T11:42:14.062Z,19.08
2023-05-10T11:43:16.052Z,19.20
2023-05-10T11:44:18.292Z,19.32
2023-05-10T11:45:20.526Z,19.30
2023-05-10T11:46:24.679Z,19.33
2023-05-10T11:47:30.415Z,19.65
2023-05-10T11:48:33.133Z,19.72
2023-05-10T11:49:35.838Z,19.47
2023-05-10T11:50:37.961Z,19.46
2023-05-10T11:51:40.509Z,19.27
2023-05-10T11:52:44.183Z,19.28
2023-05-10T11:53:47.045Z,19.60
2023-05-10T11:54:53.428Z,19.26
2023-05-10T11:55:55.492Z,19.19
2023-05-10T11:56:58.457Z,18.97
2023-05-10T11:58:02.733Z,19.09
2023-05-10T11:59:04.816Z,19.16
2023-05-10T12:00:07.444Z,19.12
2023-05-10T12:01:11.519Z,19.24
2023-05-10T12:02:16.748Z,19.18
2023-05-10T12:03:20.311Z,19.35
2023-05-10T12:04:22.990Z,19.37
2023-05-10T12:05:27.069Z,19.16
2023-05-10T12:06:32.293Z,19.17
2023-05-10T12:07:40.764Z,19.01
2023-05-10T12:08:47.308Z,18.95
2023-05-10T12:10:06.298Z,19.01
2023-05-10T12:11:11.499Z,18.70
2023-05-10T12:12:18.184Z,18.69
2023-05-10T12:13:22.197Z,18.69
2023-05-10T12:14:25.735Z,18.82
2023-05-10T12:15:29.079Z,19.07
2023-05-10T12:16:31.598Z,19.33
2023-05-10T12:17:33.946Z,19.20
2023-05-10T12:18:41.270Z,18.89
2023-05-10T12:19:44.694Z,19.32
2023-05-10T12:20:46.751Z,18.92
2023-05-10T12:21:52.069Z,18.93
2023-05-10T12:23:00.511Z,18.95
2023-05-10T12:24:04.852Z,18.58
2023-05-10T12:25:09.304Z,18.83
2023-05-10T12:26:11.742Z,18.99
2023-05-10T12:27:19.037Z,18.97
2023-05-10T12:28:23.166Z,18.98
2023-05-10T12:29:25.093Z,19.04
2023-05-10T12:30:29.829Z,18.89
2023-05-10T12:31:31.800Z,18.74
2023-05-10T12:32:45.703Z,18.86
2023-05-10T12:33:48.623Z,18.88
2023-05-10T12:34:57.559Z,18.84
2023-05-10T12:36:00.443Z,18.91
2023-05-10T12:37:03.899Z,18.93
2023-05-10T12:38:28.277Z,18.82
2023-05-10T12:39:42.813Z,18.98
2023-05-10T12:40:44.910Z,19.34
2023-05-10T12:41:47.429Z,19.07
2023-05-10T12:42:54.899Z,18.72
2023-05-10T12:44:00.210Z,18.84
2023-05-10T12:45:03.726Z,18.85
2023-05-10T12:46:12.644Z,19.04
2023-05-10T12:47:14.698Z,19.28
2023-05-10T12:48:16.836Z,19.11
2023-05-10T12:49:20.009Z,18.82
2023-05-10T12:50:22.117Z,19.02
2023-05-10T12:51:24.515Z,18.84
2023-05-10T12:52:27.272Z,18.74
2023-05-10T12:53:29.204Z,18.70
2023-05-10T12:54:31.819Z,18.56
2023-05-10T12:55:34.161Z,18.57
2023-05-10T12:56:36.466Z,18.75
2023-05-10T12:57:38.562Z,18.84
2023-05-10T12:58:43.265Z,18.99
2023-05-10T12:59:50.532Z,19.02
2023-05-10T13:00:53.772Z,19.13
2023-05-10T13:01:55.857Z,19.14
2023-05-10T13:02:59.019Z,19.16
2023-05-10T13:04:01.516Z,19.11
2023-05-10T13:05:03.948Z,19.15
2023-05-10T13:06:07.631Z,19.27
2023-05-10T13:07:10.361Z,18.96
2023-05-10T13:08:12.526Z,18.89
2023-05-10T13:09:14.485Z,18.68
2023-05-10T13:10:17.669Z,18.63
2023-05-10T13:11:20.932Z,18.63
2023-05-10T13:12:25.692Z,18.86
2023-05-10T13:13:28.166Z,18.73
2023-05-10T13:14:31.438Z,18.77
2023-05-10T13:15:34.245Z,18.69
2023-05-10T13:16:36.304Z,18.63
2023-05-10T13:17:41.772Z,18.65
2023-05-10T13:18:43.769Z,18.83
2023-05-10T13:19:45.865Z,18.69
2023-05-10T13:20:48.094Z,18.63
2023-05-10T13:21:49.986Z,18.79
2023-05-10T13:22:57.021Z,18.45
2023-05-10T13:24:02.314Z,18.44
2023-05-10T13:25:11.895Z,18.36
2023-05-10T13:44:26.524Z,17.99
2023-05-10T16:29:15.010Z,16.58
2023-05-10T16:31:41.310Z,16.57
2023-05-10T17:12:03.100Z,16.23
2023-05-10T17:21:27.805Z,16.17
2023-05-10T17:35:49.164Z,16.01
2023-05-10T17:42:51.689Z,16.00
2023-05-10T17:48:05.754Z,15.96
2023-05-10T17:50:06.689Z,15.93
2023-05-10T17:51:33.241Z,15.94
2023-05-10T17:52:51.271Z,15.87
2023-05-10T18:02:20.996Z,15.72
2023-05-10T18:04:24.873Z,15.71
2023-05-10T18:07:49.116Z,15.72
2023-05-10T18:13:22.602Z,15.59
2023-05-10T18:14:54.736Z,15.59
2023-05-10T18:16:51.376Z,15.57
2023-05-10T18:18:28.479Z,15.54
2023-05-10T18:20:29.413Z,15.55
2023-05-10T18:21:48.371Z,15.51
2023-05-10T18:23:12.193Z,15.51
2023-05-10T18:24:40.176Z,15.49
2023-05-10T18:25:44.488Z,15.50
2023-05-10T18:26:55.548Z,15.50
2023-05-10T18:28:04.449Z,15.52
2023-05-10T18:34:47.337Z,15.41
2023-05-10T18:44:34.663Z,15.14
2023-05-10T18:45:42.381Z,15.14
2023-05-10T18:46:52.148Z,15.10
2023-05-10T18:48:09.661Z,15.07
2023-05-10T18:49:13.400Z,15.07
2023-05-10T18:50:17.426Z,15.05
2023-05-10T18:51:23.429Z,15.02
2023-05-10T18:52:25.700Z,15.07
2023-05-10T18:53:39.620Z,15.11
2023-05-10T18:54:49.738Z,15.14
2023-05-10T18:56:24.741Z,15.13
2023-05-10T18:57:42.952Z,15.15
2023-05-10T19:01:36.318Z,15.06
2023-05-10T19:03:14.946Z,14.98
2023-05-10T19:04:50.461Z,14.97
2023-05-10T19:12:05.243Z,15.10
2023-05-10T19:13:36.066Z,15.08
2023-05-10T19:15:12.464Z,15.07
2023-05-10T19:16:29.270Z,15.04
2023-05-10T19:17:40.855Z,15.08
2023-05-10T19:19:24.356Z,15.09
2023-05-10T19:20:40.847Z,15.08
2023-05-10T19:29:02.241Z,14.97
2023-05-10T19:30:41.361Z,14.98
2023-05-10T19:31:58.678Z,14.97
2023-05-10T19:33:19.555Z,14.96
2023-05-10T19:34:59.971Z,14.80
2023-05-10T19:36:20.092Z,14.82
2023-05-10T19:37:34.703Z,14.87
2023-05-10T20:29:03.903Z,14.71
2023-05-10T21:37:57.477Z,14.61
